This is the latest recevied weather packets stored in our database for station/object K4QXN. If no packets are shown the sender has not sent any weather packets the latest 1 day(s).
| Time | Temp. | Humidity | Pressure | Rain* | Wind** | Luminosity | Snow |
|---|---|---|---|---|---|---|---|
| 1778034829 | 16.67° C | 71% | 1012.1 hPa | 0 mm | - | - | - |
| 1778034226 | 16.11° C | 72% | 1012.1 hPa | 0 mm | - | - | - |
| 1778033925 | 16.11° C | 72% | 1011.8 hPa | 0 mm | - | - | - |
| 1778033623 | 16.11° C | 71% | 1011.8 hPa | 0 mm | - | - | - |
| 1778033321 | 16.11° C | 71% | 1012.1 hPa | 0 mm | - | - | - |
| 1778033019 | 16.67° C | 70% | 1012.1 hPa | 0 mm | - | - | - |
| 1778032416 | 16.11° C | 70% | 1012.1 hPa | 0 mm | - | - | - |
| 1778032114 | 16.67° C | 69% | 1012.1 hPa | 0 mm | - | - | - |
| 1778031812 | 17.22° C | 69% | 1012.1 hPa | 0 mm | - | - | - |
| 1778030907 | 17.22° C | 66% | 1011.8 hPa | 0 mm | - | - | - |
| 1778030605 | 17.22° C | 66% | 1011.8 hPa | 0 mm | - | - | - |
| 1778030002 | 17.78° C | 63% | 1011.8 hPa | 0 mm | - | - | - |
| 1778029700 | 17.78° C | 61% | 1011.8 hPa | 0 mm | - | - | - |
| 1778029398 | 18.33° C | 59% | 1011.8 hPa | 0 mm | - | - | - |
| 1778029097 | 18.89° C | 59% | 1011.8 hPa | 0 mm | - | - | - |
| 1778028795 | 19.44° C | 55% | 1011.8 hPa | 0 mm | - | - | - |
| 1778028192 | 20.56° C | 52% | 1011.8 hPa | 0 mm | - | - | - |
| 1778027890 | 21.11° C | 51% | 1011.8 hPa | 0 mm | - | - | - |
| 1778027588 | 21.11° C | 51% | 1011.8 hPa | 0 mm | - | - | - |
| 1778027287 | 21.11° C | 50% | 1011.5 hPa | 0 mm | - | - | - |
| 1778026985 | 21.67° C | 49% | 1011.5 hPa | 0 mm | - | - | - |
| 1778023667 | 24.44° C | 41% | 1011.5 hPa | 0 mm | - | - | - |
| 1778021856 | 25° C | 38% | 1011.1 hPa | 0 mm | - | - | - |
| 1778020650 | 26.11° C | 37% | 1011.5 hPa | 0 mm | - | - | - |
| 1778020348 | 26.11° C | 37% | 1011.5 hPa | 0 mm | - | - | - |
* Rain latest hour (hover to see other rain measurements)
** Current wind speed in m/s (hover to see current wind gust speed)